Time;durP1;ratioP1;P1;durP2;ratioP2;P2;SDS_P1;SDS_P2;PMS_P1;PMS_P2;Temp;Humidity;BMP_temperature;BMP_pressure;BME280_temperature;BME280_humidity;BME280_pressure;Samples;Min_cycle;Max_cycle;Signal;HPM_P1;HPM_P2
2021/09/17 00:01:18;;;;;;;0.20;0.20;;;17.60;99.90;;;;;;5051557;28;20229;-78
2021/09/17 00:03:45;;;;;;;0.10;0.10;;;17.50;99.90;;;;;;5069633;28;20176;-78
2021/09/17 00:06:10;;;;;;;0.10;0.10;;;17.50;99.90;;;;;;5069577;28;20597;-78
2021/09/17 00:08:36;;;;;;;0.70;0.70;;;17.50;99.90;;;;;;5051616;28;20360;-78
2021/09/17 00:11:03;;;;;;;0.43;0.43;;;17.50;99.90;;;;;;5069482;28;20156;-78
2021/09/17 00:13:29;;;;;;;0.10;0.10;;;17.40;99.90;;;;;;5069496;28;20244;-78
2021/09/17 00:15:55;;;;;;;0.10;0.10;;;17.40;99.90;;;;;;5051332;28;20291;-78
2021/09/17 00:18:21;;;;;;;0.00;0.00;;;17.30;99.90;;;;;;5051306;28;20157;-78
2021/09/17 00:20:47;;;;;;;0.10;0.10;;;17.30;99.90;;;;;;5069276;28;20153;-78
2021/09/17 00:23:13;;;;;;;0.10;0.10;;;17.50;99.90;;;;;;5051156;28;20165;-78
2021/09/17 00:25:39;;;;;;;0.20;0.20;;;17.40;99.90;;;;;;5069171;28;20192;-78
2021/09/17 00:28:04;;;;;;;0.15;0.15;;;17.40;99.90;;;;;;5051028;28;20194;-78
2021/09/17 00:30:30;;;;;;;0.08;0.08;;;17.40;99.90;;;;;;5051055;28;20292;-79
2021/09/17 00:32:58;;;;;;;0.10;0.10;;;17.40;99.90;;;;;;5069154;28;20172;-79
2021/09/17 00:35:24;;;;;;;0.47;0.47;;;17.40;99.90;;;;;;5050842;28;20192;-80
2021/09/17 00:37:51;;;;;;;0.00;0.00;;;17.50;99.90;;;;;;5067599;28;20199;-78
2021/09/17 00:40:18;;;;;;;0.22;0.22;;;17.50;99.90;;;;;;5050764;28;20211;-78
2021/09/17 00:42:44;;;;;;;0.63;0.63;;;17.50;99.90;;;;;;5068928;28;20220;-78
2021/09/17 00:45:12;;;;;;;0.15;0.15;;;17.50;99.90;;;;;;5067499;28;20190;-78
2021/09/17 00:47:39;;;;;;;0.10;0.10;;;17.50;99.90;;;;;;5068710;28;20167;-77
2021/09/17 00:50:09;;;;;;;0.10;0.10;;;17.60;99.90;;;;;;5047178;28;20239;-78
2021/09/17 00:52:35;;;;;;;0.38;0.38;;;17.60;99.90;;;;;;5048701;28;20174;-77
2021/09/17 00:55:01;;;;;;;0.00;0.00;;;17.60;99.90;;;;;;5048493;28;20212;-78
2021/09/17 00:57:27;;;;;;;0.15;0.10;;;17.60;99.90;;;;;;5048377;28;20249;-78
2021/09/17 00:59:57;;;;;;;0.10;0.10;;;17.50;99.90;;;;;;5047182;28;20240;-78
2021/09/17 01:02:23;;;;;;;0.20;0.20;;;17.50;99.90;;;;;;5046270;28;20658;-78
2021/09/17 01:04:49;;;;;;;0.85;0.22;;;17.50;99.90;;;;;;5047311;28;20185;-78
2021/09/17 01:07:16;;;;;;;0.28;0.28;;;17.40;99.90;;;;;;5064063;28;20166;-78
2021/09/17 01:09:42;;;;;;;0.80;0.80;;;17.30;99.90;;;;;;5064410;28;20681;-77
2021/09/17 01:12:09;;;;;;;0.20;0.20;;;17.30;99.90;;;;;;5049993;28;20177;-78
2021/09/17 01:14:37;;;;;;;0.13;0.13;;;17.40;99.90;;;;;;5065157;28;20287;-78
2021/09/17 01:17:04;;;;;;;0.00;0.00;;;17.40;99.90;;;;;;5063808;28;20157;-77
2021/09/17 01:19:30;;;;;;;0.00;0.00;;;17.40;99.90;;;;;;5063776;28;20197;-78
2021/09/17 01:22:01;;;;;;;0.40;0.40;;;17.40;99.90;;;;;;5048370;28;20239;-78
2021/09/17 01:24:28;;;;;;;0.00;0.00;;;17.30;99.90;;;;;;5063813;28;20171;-78
2021/09/17 01:26:55;;;;;;;0.25;0.25;;;17.40;99.90;;;;;;5048495;28;20535;-77
2021/09/17 01:29:21;;;;;;;0.65;0.65;;;17.40;99.90;;;;;;5048348;28;20168;-77
2021/09/17 01:31:47;;;;;;;0.20;0.20;;;17.40;99.90;;;;;;5048022;28;20219;-77
2021/09/17 01:34:17;;;;;;;0.10;0.10;;;17.40;99.90;;;;;;5063730;28;20655;-78
2021/09/17 01:36:43;;;;;;;0.80;0.80;;;17.40;99.90;;;;;;5063457;28;20158;-78
2021/09/17 01:39:09;;;;;;;0.30;0.30;;;17.10;99.90;;;;;;5048233;28;20154;-78
2021/09/17 01:41:35;;;;;;;0.17;0.10;;;17.00;99.90;;;;;;5048069;28;20199;-78
2021/09/17 01:44:01;;;;;;;0.10;0.10;;;17.00;99.90;;;;;;5048349;28;20495;-78
2021/09/17 01:46:27;;;;;;;0.08;0.08;;;17.00;99.90;;;;;;5048066;28;20153;-78
2021/09/17 01:48:53;;;;;;;11.77;1.48;;;17.00;99.90;;;;;;5047977;28;20311;-78
2021/09/17 01:51:19;;;;;;;15.65;2.13;;;17.10;99.90;;;;;;5063010;28;20236;-78
2021/09/17 01:53:45;;;;;;;27.77;2.92;;;17.20;99.90;;;;;;5048248;28;20208;-79
2021/09/17 01:56:12;;;;;;;5.47;1.67;;;17.20;99.90;;;;;;5047995;28;20173;-78
2021/09/17 01:58:38;;;;;;;9.25;2.08;;;17.20;99.90;;;;;;5063351;28;20172;-78
2021/09/17 02:01:04;;;;;;;9.63;2.35;;;17.10;99.90;;;;;;5063112;28;20209;-77
2021/09/17 02:03:30;;;;;;;11.70;1.90;;;17.10;99.90;;;;;;5047970;28;20160;-78
2021/09/17 02:05:57;;;;;;;37.08;3.72;;;17.10;99.90;;;;;;5048018;28;20192;-78
2021/09/17 02:08:23;;;;;;;29.35;3.10;;;17.00;99.90;;;;;;5048392;28;20216;-79
2021/09/17 02:10:48;;;;;;;3.95;1.05;;;16.90;99.90;;;;;;5065590;28;20208;-79
2021/09/17 02:13:19;;;;;;;16.88;2.17;;;17.00;99.90;;;;;;5050615;28;20225;-79
2021/09/17 02:15:50;;;;;;;2.85;1.63;;;17.00;99.90;;;;;;5054531;28;20177;-78
2021/09/17 02:18:17;;;;;;;1.35;1.25;;;17.00;99.90;;;;;;5054416;28;20191;-78
2021/09/17 02:20:44;;;;;;;1.08;0.70;;;17.10;99.90;;;;;;5054455;28;20235;-79
2021/09/17 02:23:10;;;;;;;0.75;0.60;;;17.10;99.90;;;;;;5054347;28;20255;-79
2021/09/17 02:25:36;;;;;;;0.55;0.55;;;17.00;99.90;;;;;;5053679;28;20169;-79
2021/09/17 02:28:02;;;;;;;1.27;0.57;;;17.00;99.90;;;;;;5052927;28;20239;-78
2021/09/17 02:30:28;;;;;;;0.10;0.10;;;17.00;99.90;;;;;;5051551;28;20202;-79
2021/09/17 02:32:54;;;;;;;0.57;0.57;;;17.00;99.90;;;;;;5051678;28;20174;-80
2021/09/17 02:35:20;;;;;;;0.00;0.00;;;17.10;99.90;;;;;;5066958;28;20199;-78
2021/09/17 02:37:46;;;;;;;0.00;0.00;;;17.10;99.90;;;;;;5051626;28;20645;-78
2021/09/17 02:40:14;;;;;;;0.28;0.20;;;17.20;99.90;;;;;;5051607;28;20197;-79
2021/09/17 02:42:41;;;;;;;0.43;0.30;;;17.20;99.90;;;;;;5051958;28;20176;-79
2021/09/17 02:45:09;;;;;;;2.95;1.02;;;17.30;99.90;;;;;;5067364;28;20165;-79
2021/09/17 02:47:35;;;;;;;0.10;0.10;;;17.40;99.90;;;;;;5067188;28;20559;-78
2021/09/17 02:50:01;;;;;;;0.00;0.00;;;17.40;99.90;;;;;;5056922;28;20325;-79
2021/09/17 02:52:27;;;;;;;2.00;0.90;;;17.40;99.90;;;;;;5053644;28;20176;-77
2021/09/17 02:54:53;;;;;;;0.20;0.20;;;17.50;99.90;;;;;;5071829;28;20245;-76
2021/09/17 02:57:19;;;;;;;0.43;0.43;;;17.40;99.90;;;;;;5070220;28;20156;-75
2021/09/17 02:59:45;;;;;;;0.60;0.60;;;17.30;99.90;;;;;;5071510;28;20687;-75
2021/09/17 03:02:12;;;;;;;2.50;0.75;;;17.20;99.90;;;;;;5071456;28;20156;-74
2021/09/17 03:04:37;;;;;;;0.10;0.10;;;17.10;99.90;;;;;;5053314;28;20701;-75
2021/09/17 03:07:04;;;;;;;0.15;0.15;;;17.10;99.90;;;;;;5071324;28;20180;-75
2021/09/17 03:09:30;;;;;;;0.00;0.00;;;17.10;99.90;;;;;;5069941;28;20252;-76
2021/09/17 03:11:56;;;;;;;0.00;0.00;;;17.10;99.90;;;;;;5071026;28;20192;-75
2021/09/17 03:14:22;;;;;;;0.22;0.22;;;17.10;99.90;;;;;;5070001;28;20218;-74
2021/09/17 03:16:49;;;;;;;0.20;0.20;;;17.10;99.90;;;;;;5069872;28;20164;-76
2021/09/17 03:19:15;;;;;;;0.20;0.20;;;17.10;99.90;;;;;;5053341;28;20240;-76
2021/09/17 03:21:42;;;;;;;0.00;0.00;;;17.10;99.90;;;;;;5053085;28;20192;-76
2021/09/17 03:24:08;;;;;;;0.35;0.35;;;17.10;99.90;;;;;;5071196;28;20172;-76
2021/09/17 03:26:34;;;;;;;0.40;0.40;;;17.00;99.90;;;;;;5070112;28;20171;-76
2021/09/17 03:29:01;;;;;;;0.25;0.25;;;17.10;99.90;;;;;;5069610;28;20177;-76
2021/09/17 03:31:27;;;;;;;1.00;0.90;;;17.10;99.90;;;;;;5069533;28;20196;-76
2021/09/17 03:33:53;;;;;;;1.52;0.43;;;17.10;99.90;;;;;;5070878;28;20156;-75
2021/09/17 03:36:19;;;;;;;0.63;0.63;;;17.00;99.90;;;;;;5070900;28;20161;-76
2021/09/17 03:38:45;;;;;;;0.00;0.00;;;17.00;99.90;;;;;;5070868;28;20168;-75
2021/09/17 03:41:11;;;;;;;0.10;0.10;;;16.90;99.90;;;;;;5070598;28;20193;-74
2021/09/17 03:43:37;;;;;;;0.30;0.30;;;16.90;99.90;;;;;;5070977;28;20221;-74
2021/09/17 03:46:03;;;;;;;0.32;0.32;;;16.90;99.90;;;;;;5070996;28;20228;-75
2021/09/17 03:48:29;;;;;;;1.00;0.73;;;17.00;99.90;;;;;;5070925;28;20168;-74
2021/09/17 03:50:55;;;;;;;0.38;0.22;;;17.00;99.90;;;;;;5070214;28;20228;-75
2021/09/17 03:53:21;;;;;;;0.00;0.00;;;17.00;99.90;;;;;;5070471;28;20230;-75
2021/09/17 03:55:47;;;;;;;0.00;0.00;;;17.00;99.90;;;;;;5070344;28;20250;-75
2021/09/17 03:58:13;;;;;;;0.90;0.45;;;17.00;99.90;;;;;;5070370;28;20172;-76
2021/09/17 04:00:38;;;;;;;0.28;0.28;;;17.10;99.90;;;;;;5052163;28;20206;-75
2021/09/17 04:03:04;;;;;;;0.10;0.10;;;17.10;99.90;;;;;;5070345;28;20177;-74
2021/09/17 04:05:31;;;;;;;1.95;0.95;;;17.10;99.90;;;;;;5069042;28;20175;-75
2021/09/17 04:07:57;;;;;;;0.13;0.13;;;17.00;99.90;;;;;;5070178;28;20161;-75
2021/09/17 04:10:24;;;;;;;0.00;0.00;;;17.00;99.90;;;;;;5069988;28;20207;-75
2021/09/17 04:12:50;;;;;;;0.30;0.20;;;17.00;99.90;;;;;;5070140;28;20200;-74
2021/09/17 04:15:16;;;;;;;0.43;0.40;;;17.10;99.90;;;;;;5052112;28;20235;-75
2021/09/17 04:17:43;;;;;;;0.10;0.10;;;17.10;99.90;;;;;;5068672;28;20555;-74
2021/09/17 04:20:10;;;;;;;0.10;0.10;;;17.00;99.90;;;;;;5069816;28;20501;-74
2021/09/17 04:22:37;;;;;;;0.60;0.60;;;17.10;99.90;;;;;;5069986;28;20516;-75
2021/09/17 04:25:04;;;;;;;0.13;0.13;;;17.00;99.90;;;;;;5069866;28;20161;-75
2021/09/17 04:27:30;;;;;;;1.05;0.95;;;17.00;99.90;;;;;;5069731;28;20256;-75
2021/09/17 04:29:56;;;;;;;0.10;0.10;;;17.10;99.90;;;;;;5069794;28;20172;-75
2021/09/17 04:32:22;;;;;;;0.20;0.20;;;17.10;99.90;;;;;;5068434;28;20165;-76
2021/09/17 04:34:48;;;;;;;0.17;0.17;;;17.10;99.90;;;;;;5069645;28;20196;-74
2021/09/17 04:37:14;;;;;;;0.10;0.10;;;17.20;99.90;;;;;;5069473;28;20222;-75
2021/09/17 04:39:40;;;;;;;5.13;0.30;;;17.10;99.90;;;;;;5069396;28;20160;-76
2021/09/17 04:42:06;;;;;;;0.30;0.30;;;17.10;99.90;;;;;;5069382;28;20216;-74
2021/09/17 04:44:32;;;;;;;5.38;0.52;;;17.10;99.90;;;;;;5069373;28;20165;-75
2021/09/17 04:46:58;;;;;;;0.63;0.63;;;17.10;99.90;;;;;;5069325;28;20175;-75
2021/09/17 04:49:24;;;;;;;0.00;0.00;;;17.20;99.90;;;;;;5067672;28;20173;-76
2021/09/17 04:51:50;;;;;;;4.95;0.80;;;17.20;99.90;;;;;;5069033;28;20209;-76
2021/09/17 04:54:17;;;;;;;0.30;0.30;;;17.20;99.90;;;;;;5067816;28;20196;-75
2021/09/17 04:56:44;;;;;;;1.20;0.43;;;17.10;99.90;;;;;;5069267;28;20171;-75
2021/09/17 04:59:11;;;;;;;0.10;0.10;;;17.20;99.90;;;;;;5069111;28;20183;-74
2021/09/17 05:01:38;;;;;;;0.88;0.82;;;17.20;99.90;;;;;;5067446;28;20212;-75
2021/09/17 05:04:05;;;;;;;0.57;0.57;;;17.10;99.90;;;;;;5051019;28;20228;-75
2021/09/17 05:06:31;;;;;;;0.00;0.00;;;17.00;99.90;;;;;;5068932;28;20161;-74
2021/09/17 05:08:58;;;;;;;0.30;0.30;;;17.10;99.90;;;;;;5067464;28;20173;-74
2021/09/17 05:11:25;;;;;;;0.40;0.40;;;16.80;99.90;;;;;;5068617;28;20196;-75
2021/09/17 05:13:51;;;;;;;0.20;0.20;;;16.90;99.90;;;;;;5050924;28;20549;-75
2021/09/17 05:16:17;;;;;;;0.05;0.05;;;16.90;99.90;;;;;;5068757;28;20164;-75
2021/09/17 05:18:43;;;;;;;0.40;0.40;;;16.90;99.90;;;;;;5050503;28;20175;-75
2021/09/17 05:21:10;;;;;;;0.28;0.28;;;16.90;99.90;;;;;;5068550;28;20216;-75
2021/09/17 05:23:36;;;;;;;0.15;0.15;;;16.90;99.90;;;;;;5068813;28;20153;-75
2021/09/17 05:26:03;;;;;;;0.05;0.05;;;16.80;99.90;;;;;;5068982;28;20157;-75
2021/09/17 05:28:30;;;;;;;0.10;0.10;;;16.80;99.90;;;;;;5068630;28;20165;-75
2021/09/17 05:30:57;;;;;;;0.85;0.63;;;16.80;99.90;;;;;;5068190;28;20188;-75
2021/09/17 05:33:23;;;;;;;0.32;0.17;;;16.90;99.90;;;;;;5067237;28;20172;-75
2021/09/17 05:35:49;;;;;;;0.20;0.20;;;16.90;99.90;;;;;;5050375;28;20196;-75
2021/09/17 05:38:15;;;;;;;0.10;0.10;;;16.90;99.90;;;;;;5067036;28;20167;-76
2021/09/17 05:40:41;;;;;;;2.55;1.90;;;16.90;99.90;;;;;;5068163;28;20561;-75
2021/09/17 05:43:07;;;;;;;2.47;1.23;;;16.90;99.90;;;;;;5068482;28;20160;-74
2021/09/17 05:45:33;;;;;;;0.20;0.20;;;17.00;99.90;;;;;;5068329;28;20164;-75
2021/09/17 05:47:59;;;;;;;0.38;0.20;;;17.00;99.90;;;;;;5067843;28;20179;-74
2021/09/17 05:50:25;;;;;;;0.35;0.35;;;17.10;99.90;;;;;;5067722;28;20220;-75
2021/09/17 05:52:51;;;;;;;1.65;0.82;;;17.10;99.90;;;;;;5068206;28;20206;-74
2021/09/17 05:55:17;;;;;;;0.52;0.52;;;17.10;99.90;;;;;;5068051;28;20227;-75
2021/09/17 05:57:43;;;;;;;0.75;0.75;;;17.10;99.90;;;;;;5066731;28;20272;-75
2021/09/17 06:00:10;;;;;;;1.13;0.68;;;17.10;99.90;;;;;;5067985;28;20189;-75
2021/09/17 06:02:36;;;;;;;1.55;0.75;;;17.00;99.90;;;;;;5067979;28;20312;-75
2021/09/17 06:05:03;;;;;;;1.40;0.68;;;17.10;99.90;;;;;;5068109;28;20172;-75
2021/09/17 06:07:29;;;;;;;0.15;0.15;;;17.10;99.90;;;;;;5066794;28;20168;-76
2021/09/17 06:09:56;;;;;;;1.20;1.08;;;17.10;99.90;;;;;;5067998;28;20160;-76
2021/09/17 06:12:22;;;;;;;0.13;0.13;;;17.00;99.90;;;;;;5067975;28;20165;-76
2021/09/17 06:14:48;;;;;;;0.45;0.30;;;17.00;99.90;;;;;;5049999;28;20212;-75
2021/09/17 06:17:14;;;;;;;0.13;0.13;;;17.10;99.90;;;;;;5068123;28;20217;-75
2021/09/17 06:19:40;;;;;;;0.38;0.38;;;17.00;99.90;;;;;;5067950;28;20161;-73
2021/09/17 06:22:06;;;;;;;0.75;0.70;;;17.10;99.90;;;;;;5067760;28;20687;-75
2021/09/17 06:24:32;;;;;;;0.30;0.30;;;17.30;99.90;;;;;;5067542;28;20189;-74
2021/09/17 06:26:58;;;;;;;0.65;0.25;;;17.30;99.90;;;;;;5066277;28;20181;-74
2021/09/17 06:29:24;;;;;;;0.10;0.10;;;17.30;99.90;;;;;;5067655;28;20167;-74
2021/09/17 06:31:50;;;;;;;0.10;0.10;;;17.30;99.90;;;;;;5063956;28;20223;-75
2021/09/17 06:34:16;;;;;;;4.95;0.55;;;17.40;99.90;;;;;;5066879;28;20199;-76
2021/09/17 06:36:42;;;;;;;3.65;0.85;;;17.40;99.90;;;;;;5049776;28;20169;-75
2021/09/17 06:39:08;;;;;;;0.30;0.15;;;17.40;99.90;;;;;;5067757;28;20157;-75
2021/09/17 06:41:34;;;;;;;1.13;0.40;;;17.50;99.90;;;;;;5049659;28;20192;-75
2021/09/17 06:44:00;;;;;;;0.25;0.25;;;17.70;99.90;;;;;;5047200;28;20169;-75
2021/09/17 06:46:26;;;;;;;0.25;0.25;;;17.80;99.90;;;;;;5049935;28;20179;-74
2021/09/17 06:48:52;;;;;;;0.30;0.30;;;18.00;99.90;;;;;;5067593;28;20158;-74
2021/09/17 06:51:18;;;;;;;0.30;0.30;;;18.00;99.90;;;;;;5065801;28;20228;-74
2021/09/17 06:53:44;;;;;;;9.93;1.33;;;17.90;99.90;;;;;;5066999;28;20161;-75
2021/09/17 06:56:11;;;;;;;0.13;0.13;;;18.00;99.90;;;;;;5049396;28;20157;-74
2021/09/17 06:58:37;;;;;;;0.65;0.25;;;18.10;99.90;;;;;;5049830;28;20633;-75
2021/09/17 07:01:04;;;;;;;0.40;0.40;;;18.20;99.90;;;;;;5069189;28;20191;-75
2021/09/17 07:03:30;;;;;;;0.28;0.28;;;18.20;99.90;;;;;;5053346;28;20165;-75
2021/09/17 07:05:56;;;;;;;0.28;0.28;;;18.10;99.90;;;;;;5053233;28;20161;-75
2021/09/17 07:08:22;;;;;;;0.10;0.10;;;18.20;99.90;;;;;;5071103;28;20170;-74
2021/09/17 07:10:49;;;;;;;0.10;0.10;;;18.20;99.90;;;;;;5053069;28;20168;-75
2021/09/17 07:13:15;;;;;;;0.25;0.25;;;18.20;99.90;;;;;;5070839;28;20165;-74
2021/09/17 07:15:42;;;;;;;0.32;0.32;;;18.20;99.90;;;;;;5070967;28;20272;-75
2021/09/17 07:18:10;;;;;;;0.47;0.47;;;18.20;99.90;;;;;;5071004;28;20645;-75
2021/09/17 07:20:38;;;;;;;0.10;0.10;;;18.20;99.90;;;;;;5052745;28;20210;-74
2021/09/17 07:23:05;;;;;;;0.15;0.15;;;18.30;99.90;;;;;;5070787;28;20193;-75
2021/09/17 07:25:32;;;;;;;5.93;1.02;;;18.30;99.90;;;;;;5052283;28;20504;-75
2021/09/17 07:27:58;;;;;;;0.10;0.10;;;18.40;99.90;;;;;;5070303;28;20176;-75
2021/09/17 07:30:24;;;;;;;0.10;0.10;;;18.60;99.90;;;;;;5067270;28;20189;-76
2021/09/17 07:32:50;;;;;;;0.05;0.05;;;18.70;99.90;;;;;;5061355;28;20205;-76
2021/09/17 07:35:16;;;;;;;0.30;0.30;;;18.60;99.90;;;;;;5061928;28;20185;-76
2021/09/17 07:37:44;;;;;;;1.17;1.10;;;18.60;99.90;;;;;;5070476;28;20280;-75
2021/09/17 07:40:14;;;;;;;0.03;0.03;;;18.70;99.90;;;;;;5036012;28;20170;-74
2021/09/17 07:42:44;;;;;;;0.20;0.20;;;18.70;99.90;;;;;;5032277;28;20193;-74
2021/09/17 07:45:11;;;;;;;0.00;0.00;;;18.80;99.90;;;;;;5050197;28;20299;-74
2021/09/17 07:47:37;;;;;;;0.28;0.28;;;18.90;99.90;;;;;;5040066;28;20679;-74
2021/09/17 07:50:05;;;;;;;0.45;0.45;;;18.90;99.90;;;;;;5051244;28;20293;-75
2021/09/17 07:52:31;;;;;;;0.57;0.57;;;19.10;99.90;;;;;;5081266;28;20199;-75
2021/09/17 07:54:57;;;;;;;0.85;0.85;;;19.10;99.90;;;;;;5090278;28;20207;-74
2021/09/17 07:57:22;;;;;;;0.00;0.00;;;19.00;99.90;;;;;;5086457;28;20176;-75
2021/09/17 07:59:48;;;;;;;0.70;0.35;;;19.20;99.90;;;;;;5049996;28;20204;-74
2021/09/17 08:02:14;;;;;;;0.98;0.57;;;19.60;99.90;;;;;;5069126;28;20191;-75
2021/09/17 08:04:40;;;;;;;0.00;0.00;;;19.90;99.90;;;;;;5050965;28;20184;-73
2021/09/17 08:07:07;;;;;;;0.28;0.28;;;20.30;99.90;;;;;;5049297;28;20184;-74
2021/09/17 08:09:33;;;;;;;0.10;0.10;;;19.80;99.90;;;;;;5067417;28;20196;-74
2021/09/17 08:12:00;;;;;;;0.05;0.05;;;19.60;99.90;;;;;;5051019;28;20165;-74
2021/09/17 08:14:26;;;;;;;0.10;0.10;;;19.60;99.90;;;;;;5069710;28;20192;-74
2021/09/17 08:16:52;;;;;;;0.10;0.10;;;20.20;99.90;;;;;;5070215;28;20152;-77
2021/09/17 08:19:18;;;;;;;0.10;0.10;;;20.20;99.90;;;;;;5052781;28;20286;-74
2021/09/17 08:21:44;;;;;;;0.20;0.20;;;20.20;99.90;;;;;;5071591;28;20213;-75
2021/09/17 08:24:15;;;;;;;0.22;0.22;;;20.00;99.90;;;;;;5069265;28;20161;-74
2021/09/17 08:26:44;;;;;;;0.10;0.10;;;19.90;99.90;;;;;;5069485;28;20191;-76
2021/09/17 08:29:10;;;;;;;0.10;0.10;;;20.30;99.90;;;;;;5050158;28;20200;-75
2021/09/17 08:31:37;;;;;;;0.17;0.17;;;20.60;99.90;;;;;;5068512;28;20176;-75
2021/09/17 08:34:04;;;;;;;0.00;0.00;;;20.70;99.90;;;;;;5068851;28;20227;-73
2021/09/17 08:36:30;;;;;;;0.00;0.00;;;20.30;99.90;;;;;;5068821;28;20198;-73
2021/09/17 08:38:55;;;;;;;0.00;0.00;;;20.20;99.90;;;;;;5062437;28;20655;-73
2021/09/17 08:41:23;;;;;;;0.75;0.10;;;20.00;99.90;;;;;;5067517;28;20212;-73
2021/09/17 08:43:49;;;;;;;0.20;0.20;;;20.20;99.90;;;;;;5069114;28;20160;-73
2021/09/17 08:46:15;;;;;;;1.35;0.75;;;20.70;99.90;;;;;;5070964;28;20196;-73
2021/09/17 08:48:43;;;;;;;0.10;0.10;;;20.70;99.90;;;;;;5089321;28;20167;-73
2021/09/17 08:51:09;;;;;;;0.38;0.38;;;20.50;99.90;;;;;;5051268;28;20327;-74
2021/09/17 08:53:35;;;;;;;0.05;0.05;;;20.30;99.90;;;;;;5050796;28;20171;-73
2021/09/17 08:56:06;;;;;;;0.47;0.10;;;20.00;99.90;;;;;;5049975;28;20199;-74
2021/09/17 08:58:32;;;;;;;0.00;0.00;;;19.90;99.90;;;;;;5050166;28;20244;-73
2021/09/17 09:00:58;;;;;;;0.20;0.20;;;19.90;99.90;;;;;;5068630;28;20175;-74
2021/09/17 09:03:30;;;;;;;0.10;0.10;;;19.90;99.90;;;;;;5050476;28;20596;-73
2021/09/17 09:06:08;;;;;;;0.03;0.03;;;19.90;99.90;;;;;;5068791;28;20196;-73
2021/09/17 09:08:36;;;;;;;0.03;0.03;;;19.90;99.90;;;;;;5068761;28;20270;-73
2021/09/17 09:11:14;;;;;;;26.85;0.90;;;20.10;99.90;;;;;;5063053;28;20198;-75
2021/09/17 09:14:09;;;;;;;0.22;0.22;;;20.20;99.90;;;;;;5066953;28;20178;-75
2021/09/17 09:16:41;;;;;;;0.32;0.32;;;20.30;99.90;;;;;;5066296;28;20222;-75
2021/09/17 09:19:19;;;;;;;0.00;0.00;;;20.20;99.90;;;;;;5067977;28;20188;-75
2021/09/17 09:21:47;;;;;;;0.20;0.20;;;20.30;99.90;;;;;;5049951;28;20194;-74
2021/09/17 09:24:16;;;;;;;0.03;0.03;;;20.40;99.90;;;;;;5067100;28;20160;-75
2021/09/17 09:26:45;;;;;;;0.08;0.08;;;20.30;99.90;;;;;;5067764;28;20295;-74
2021/09/17 09:29:30;;;;;;;0.08;0.08;;;20.10;99.90;;;;;;5047303;28;20169;-75
2021/09/17 09:31:57;;;;;;;1.75;0.22;;;20.10;99.90;;;;;;5064728;28;20175;-75
2021/09/17 09:34:47;;;;;;;0.00;0.00;;;20.10;99.90;;;;;;5048054;28;20302;-73
2021/09/17 09:37:16;;;;;;;0.10;0.10;;;20.10;99.90;;;;;;5046281;28;20161;-73
2021/09/17 09:39:49;;;;;;;0.10;0.10;;;19.90;99.90;;;;;;5049273;28;20181;-73
2021/09/17 09:42:28;;;;;;;0.00;0.00;;;19.80;99.90;;;;;;5066518;28;20251;-75
2021/09/17 09:45:17;;;;;;;0.45;0.45;;;19.80;99.90;;;;;;5065573;28;20210;-74
2021/09/17 09:47:49;;;;;;;0.05;0.05;;;19.60;99.90;;;;;;5048790;28;20193;-74
2021/09/17 09:50:22;;;;;;;0.10;0.10;;;19.80;99.90;;;;;;5067194;28;20220;-75
2021/09/17 09:52:52;;;;;;;0.20;0.20;;;19.80;99.90;;;;;;5064792;28;20202;-75
2021/09/17 09:55:18;;;;;;;0.08;0.08;;;20.00;99.90;;;;;;5065310;28;20703;-74
2021/09/17 09:57:45;;;;;;;0.10;0.10;;;20.00;99.90;;;;;;5065025;28;20172;-74
2021/09/17 10:00:13;;;;;;;0.10;0.10;;;20.00;99.90;;;;;;5066681;28;20180;-73
2021/09/17 10:02:41;;;;;;;0.35;0.35;;;20.00;99.90;;;;;;5064346;28;20172;-73
2021/09/17 10:05:10;;;;;;;0.00;0.00;;;20.10;99.90;;;;;;5048362;28;20192;-73
2021/09/17 10:07:36;;;;;;;0.05;0.05;;;20.30;99.90;;;;;;5046341;28;20176;-74
2021/09/17 10:10:05;;;;;;;0.00;0.00;;;20.50;99.90;;;;;;5065685;28;20222;-74
2021/09/17 10:12:31;;;;;;;0.10;0.10;;;20.60;99.90;;;;;;5067229;28;20160;-74
2021/09/17 10:14:59;;;;;;;0.20;0.20;;;20.60;99.90;;;;;;5067009;28;20268;-74
2021/09/17 10:17:29;;;;;;;0.00;0.00;;;20.80;99.90;;;;;;5067709;28;20172;-74
2021/09/17 10:19:57;;;;;;;0.13;0.13;;;21.30;99.90;;;;;;5067487;28;20163;-73
2021/09/17 10:22:27;;;;;;;0.50;0.30;;;21.40;99.90;;;;;;5066078;28;20168;-73
2021/09/17 10:25:11;;;;;;;0.00;0.00;;;21.60;99.90;;;;;;5066130;28;20195;-74
2021/09/17 10:27:40;;;;;;;0.38;0.38;;;21.30;99.90;;;;;;5067857;28;20161;-72
2021/09/17 10:30:17;;;;;;;0.10;0.10;;;21.50;99.90;;;;;;5049708;28;20168;-73
2021/09/17 10:32:46;;;;;;;0.10;0.10;;;21.70;99.90;;;;;;5049601;28;20235;-74
2021/09/17 10:35:15;;;;;;;0.30;0.20;;;21.90;99.90;;;;;;5067315;28;20214;-73
2021/09/17 10:37:56;;;;;;;0.10;0.10;;;21.80;99.90;;;;;;5069799;28;20164;-72
2021/09/17 10:41:02;;;;;;;0.00;0.00;;;21.40;99.90;;;;;;5050930;28;20181;-74
2021/09/17 10:43:37;;;;;;;0.45;0.45;;;21.80;99.90;;;;;;5058171;28;20183;-74
2021/09/17 10:46:29;;;;;;;0.08;0.08;;;22.10;99.90;;;;;;5086936;28;20195;-74
2021/09/17 10:48:57;;;;;;;0.00;0.00;;;21.70;99.90;;;;;;5074936;28;20180;-75
2021/09/17 10:51:29;;;;;;;0.22;0.17;;;21.40;99.90;;;;;;5050251;28;20238;-74
2021/09/17 10:53:58;;;;;;;0.30;0.30;;;21.40;99.90;;;;;;5049566;28;20236;-73
2021/09/17 10:56:26;;;;;;;0.10;0.10;;;21.50;99.90;;;;;;5048783;28;20192;-72
2021/09/17 10:59:40;;;;;;;0.20;0.20;;;21.60;99.90;;;;;;5049183;28;20238;-73
2021/09/17 11:02:08;;;;;;;0.25;0.20;;;21.40;99.90;;;;;;4989927;28;20202;-72
2021/09/17 11:04:39;;;;;;;0.43;0.43;;;21.40;99.90;;;;;;4973516;28;20673;-72
2021/09/17 11:07:17;;;;;;;0.20;0.20;;;21.20;99.90;;;;;;4973517;28;20275;-71
2021/09/17 11:09:47;;;;;;;0.00;0.00;;;21.20;99.90;;;;;;4989941;28;20167;-72
2021/09/17 11:12:25;;;;;;;0.65;0.25;;;21.10;99.90;;;;;;4989641;28;20217;-72
2021/09/17 11:15:18;;;;;;;0.00;0.00;;;21.10;99.90;;;;;;4973216;28;20205;-74
2021/09/17 11:17:56;;;;;;;0.10;0.10;;;21.10;99.90;;;;;;4987573;28;20274;-72
2021/09/17 11:20:28;;;;;;;0.38;0.38;;;20.50;99.90;;;;;;4989500;28;20263;-72
2021/09/17 11:23:03;;;;;;;0.10;0.10;;;20.50;99.90;;;;;;4989736;28;20159;-72
2021/09/17 11:25:33;;;;;;;0.10;0.10;;;20.50;99.90;;;;;;4989082;28;20190;-72
2021/09/17 11:28:01;;;;;;;0.40;0.10;;;20.60;99.90;;;;;;4973162;28;20178;-73
2021/09/17 11:30:29;;;;;;;0.60;0.40;;;20.60;99.90;;;;;;4989336;28;20171;-73
2021/09/17 11:32:55;;;;;;;0.10;0.10;;;20.50;99.90;;;;;;5017417;28;20196;-73
2021/09/17 11:35:21;;;;;;;0.55;0.43;;;20.50;99.90;;;;;;5049759;28;20188;-74
2021/09/17 11:37:57;;;;;;;0.20;0.20;;;20.50;99.90;;;;;;5048500;28;20165;-74
2021/09/17 11:40:27;;;;;;;0.57;0.57;;;20.50;99.90;;;;;;5031260;28;20160;-74
2021/09/17 11:42:55;;;;;;;0.10;0.10;;;20.70;99.90;;;;;;5053667;28;20264;-73
2021/09/17 11:45:23;;;;;;;0.30;0.30;;;20.70;99.90;;;;;;5061162;28;20248;-71
2021/09/17 11:47:52;;;;;;;0.15;0.15;;;21.00;99.90;;;;;;5069783;28;20161;-72
2021/09/17 11:50:20;;;;;;;0.25;0.25;;;20.90;99.90;;;;;;5078168;28;20226;-73
2021/09/17 11:52:49;;;;;;;0.17;0.17;;;21.10;99.90;;;;;;5090780;28;20519;-72
2021/09/17 11:55:26;;;;;;;0.15;0.15;;;21.60;99.90;;;;;;5090416;28;20245;-73
2021/09/17 11:57:57;;;;;;;0.95;0.38;;;21.90;99.90;;;;;;5090436;28;20227;-73
2021/09/17 12:00:25;;;;;;;0.32;0.32;;;21.90;99.90;;;;;;5072166;28;20217;-73
2021/09/17 12:02:58;;;;;;;0.13;0.10;;;21.60;99.90;;;;;;5072009;28;20160;-73
2021/09/17 12:05:27;;;;;;;0.35;0.35;;;21.60;99.90;;;;;;5089925;28;20294;-73
2021/09/17 12:07:53;;;;;;;0.68;0.47;;;21.70;99.90;;;;;;5071818;28;20234;-73
2021/09/17 12:10:32;;;;;;;0.13;0.13;;;22.00;99.90;;;;;;5088460;28;20198;-73
2021/09/17 12:13:03;;;;;;;0.28;0.28;;;21.90;99.90;;;;;;5071763;28;20211;-73
2021/09/17 12:15:31;;;;;;;0.63;0.40;;;21.80;99.90;;;;;;5089689;28;20187;-72
2021/09/17 12:18:02;;;;;;;0.30;0.30;;;21.80;99.90;;;;;;5089500;28;20152;-72
2021/09/17 12:20:59;;;;;;;0.10;0.10;;;21.90;99.90;;;;;;5089753;28;20509;-72
2021/09/17 12:23:31;;;;;;;0.65;0.30;;;22.00;99.90;;;;;;5067120;28;20194;-72
2021/09/17 12:26:09;;;;;;;0.80;0.80;;;21.90;99.90;;;;;;5089398;28;20528;-72
2021/09/17 12:28:36;;;;;;;0.10;0.10;;;22.10;99.90;;;;;;5087989;28;20179;-72
2021/09/17 12:31:03;;;;;;;0.00;0.00;;;22.20;99.90;;;;;;5089507;28;20191;-72
2021/09/17 12:33:32;;;;;;;0.63;0.63;;;21.90;99.90;;;;;;5071348;28;20188;-73
2021/09/17 12:36:11;;;;;;;0.20;0.20;;;21.90;99.90;;;;;;5089167;28;20206;-73
2021/09/17 12:38:37;;;;;;;0.10;0.10;;;22.00;99.90;;;;;;5065204;28;20172;-72
2021/09/17 12:41:12;;;;;;;0.57;0.57;;;22.00;99.90;;;;;;5069126;28;20184;-72
2021/09/17 12:43:40;;;;;;;0.20;0.20;;;21.90;99.90;;;;;;5050868;28;20172;-72
2021/09/17 12:46:09;;;;;;;0.00;0.00;;;22.10;99.90;;;;;;5087420;28;20159;-73
2021/09/17 12:48:39;;;;;;;0.22;0.22;;;21.90;99.90;;;;;;5089204;28;20172;-73
2021/09/17 12:51:06;;;;;;;0.10;0.10;;;21.80;99.90;;;;;;5088871;28;20292;-73